Time;durP1;ratioP1;P1;durP2;ratioP2;P2;SDS_P1;SDS_P2;PMS_P1;PMS_P2;Temp;Humidity;BMP_temperature;BMP_pressure;BME280_temperature;BME280_humidity;BME280_pressure;Samples;Min_cycle;Max_cycle;Signal;HPM_P1;HPM_P2
2023/11/21 00:02:20;;;;;;;3.25;3.05;;;;;;;6.25;100.00;100210.78;5057752;28;20052;-75
2023/11/21 00:04:47;;;;;;;0.95;0.95;;;;;;;6.47;100.00;100253.69;5060672;28;20049;-76
2023/11/21 00:07:14;;;;;;;12.07;9.95;;;;;;;6.21;100.00;100232.47;5045707;28;20469;-77
2023/11/21 00:09:40;;;;;;;11.23;10.45;;;;;;;6.31;100.00;100266.47;5043462;28;20484;-76
2023/11/21 00:12:05;;;;;;;4.70;4.40;;;;;;;6.24;100.00;100240.31;5063394;28;20058;-76
2023/11/21 00:14:31;;;;;;;1.95;1.83;;;;;;;6.34;100.00;100256.13;5057634;28;20032;-74
2023/11/21 00:16:56;;;;;;;3.58;3.30;;;;;;;6.72;100.00;100346.16;5062220;28;20079;-75
2023/11/21 00:19:22;;;;;;;1.83;1.73;;;;;;;6.62;100.00;100319.06;5063430;28;20029;-77
2023/11/21 00:21:47;;;;;;;4.20;3.83;;;;;;;6.08;100.00;100224.44;5066397;28;20040;-75
2023/11/21 00:24:13;;;;;;;1.60;1.50;;;;;;;6.07;100.00;100237.47;5057964;28;20024;-76
2023/11/21 00:26:41;;;;;;;8.25;7.68;;;;;;;6.01;100.00;100243.44;5060218;28;20126;-75
2023/11/21 00:29:08;;;;;;;7.50;6.93;;;;;;;6.60;100.00;100343.34;5059178;28;20085;-77
2023/11/21 00:31:48;;;;;;;2.83;1.85;;;;;;;5.98;100.00;100253.81;5050220;28;20491;-77
2023/11/21 00:34:14;;;;;;;11.35;10.55;;;;;;;5.95;100.00;100243.38;5064585;28;20028;-74
2023/11/21 00:36:40;;;;;;;4.30;4.10;;;;;;;5.91;100.00;100239.78;5061983;28;20083;-74
2023/11/21 00:39:05;;;;;;;14.90;13.45;;;;;;;6.01;100.00;100263.41;5040155;28;20024;-75
2023/11/21 00:41:32;;;;;;;13.00;9.63;;;;;;;6.47;100.00;100347.53;5061539;28;20468;-73
2023/11/21 00:43:59;;;;;;;2.38;2.25;;;;;;;5.75;100.00;100320.22;5062922;28;20029;-76
2023/11/21 00:46:32;;;;;;;6.85;6.38;;;;;;;5.55;100.00;100228.75;5045074;28;20049;-75
2023/11/21 00:48:57;;;;;;;1.27;1.17;;;;;;;5.84;100.00;100260.50;5044894;28;20040;-75
2023/11/21 00:51:24;;;;;;;1.10;1.05;;;;;;;5.74;100.00;100238.66;5053969;28;20161;-75
2023/11/21 00:53:50;;;;;;;0.52;0.52;;;;;;;6.10;100.00;100339.09;5063340;28;20066;-75
2023/11/21 00:56:16;;;;;;;8.15;7.53;;;;;;;5.56;100.00;100226.19;5061378;28;20040;-75
2023/11/21 00:58:43;;;;;;;1.35;1.25;;;;;;;5.83;100.00;100345.56;5060820;28;20475;-77
2023/11/21 01:01:09;;;;;;;4.05;3.83;;;;;;;5.11;100.00;100244.44;5033566;28;20531;-76
2023/11/21 01:03:35;;;;;;;2.72;2.63;;;;;;;5.68;100.00;100325.31;5037008;28;20061;-75
2023/11/21 01:06:00;;;;;;;2.05;0.95;;;;;;;5.27;100.00;100242.16;5043159;28;20032;-76
2023/11/21 01:08:26;;;;;;;4.95;4.53;;;;;;;5.72;100.00;100352.28;5057722;28;20028;-75
2023/11/21 01:10:51;;;;;;;3.47;3.30;;;;;;;5.98;100.00;100354.53;5062228;28;20054;-75
2023/11/21 01:13:17;;;;;;;5.22;4.93;;;;;;;5.18;100.00;100233.31;5062425;28;20052;-77
2023/11/21 01:15:42;;;;;;;8.73;8.20;;;;;;;5.11;100.00;100206.31;5056390;28;20040;-76
2023/11/21 01:18:08;;;;;;;0.73;0.50;;;;;;;5.87;100.00;100308.28;5062427;28;20020;-77
2023/11/21 01:20:34;;;;;;;0.95;0.95;;;;;;;5.33;100.00;100223.19;5052953;28;20033;-75
2023/11/21 01:23:00;;;;;;;9.82;8.90;;;;;;;5.88;100.00;100320.47;5045397;28;20036;-76
2023/11/21 01:25:26;;;;;;;6.18;5.88;;;;;;;5.48;100.00;100290.25;5050321;28;20037;-76
2023/11/21 01:27:51;;;;;;;7.93;7.32;;;;;;;5.49;100.00;100305.88;5039132;28;20124;-75
2023/11/21 01:30:18;;;;;;;4.28;4.05;;;;;;;5.84;100.00;100341.22;5046456;28;20104;-75
2023/11/21 01:32:44;;;;;;;9.60;8.05;;;;;;;5.74;100.00;100308.06;5047430;28;20041;-74
2023/11/21 01:35:11;;;;;;;1.75;1.65;;;;;;;5.69;100.00;100307.97;5046584;28;20036;-75
2023/11/21 01:37:38;;;;;;;7.68;7.15;;;;;;;5.76;100.00;100333.28;5049206;28;20040;-75
2023/11/21 01:40:10;;;;;;;13.75;12.90;;;;;;;5.72;100.00;100337.53;5052679;28;20041;-76
2023/11/21 01:42:36;;;;;;;1.73;1.63;;;;;;;5.51;100.00;100308.50;5046945;28;20056;-75
2023/11/21 01:45:06;;;;;;;7.70;7.07;;;;;;;5.46;100.00;100317.97;5051024;28;20461;-77
2023/11/21 01:47:34;;;;;;;12.98;10.40;;;;;;;5.55;100.00;100312.94;5032623;28;20378;-77
2023/11/21 01:49:59;;;;;;;28.20;17.02;;;;;;;5.52;100.00;100298.97;5025851;28;20040;-76
2023/11/21 01:52:25;;;;;;;2.92;2.72;;;;;;;5.09;100.00;100221.00;5049996;28;20076;-75
2023/11/21 01:54:52;;;;;;;9.98;8.38;;;;;;;5.57;100.00;100339.88;5058202;28;20021;-77
2023/11/21 01:57:20;;;;;;;0.40;0.40;;;;;;;5.00;100.00;100232.09;5053673;28;20029;-76
2023/11/21 01:59:48;;;;;;;3.08;2.95;;;;;;;5.56;100.00;100351.09;5044588;28;20403;-76
2023/11/21 02:02:15;;;;;;;12.05;6.22;;;;;;;5.33;100.00;100352.38;5052660;28;20032;-76
2023/11/21 02:04:41;;;;;;;0.52;0.52;;;;;;;4.93;100.00;100270.94;5056385;28;20540;-75
2023/11/21 02:07:06;;;;;;;1.20;1.13;;;;;;;4.61;100.00;100185.38;5053882;28;20045;-77
2023/11/21 02:09:33;;;;;;;4.72;4.47;;;;;;;5.02;100.00;100354.34;5063093;28;20444;-77
2023/11/21 02:12:00;;;;;;;4.32;4.10;;;;;;;4.98;100.00;100316.13;5043035;28;20361;-75
2023/11/21 02:14:27;;;;;;;0.95;0.95;;;;;;;5.47;100.00;100377.81;5061281;28;20053;-76
2023/11/21 02:16:55;;;;;;;3.92;3.50;;;;;;;5.54;100.00;100364.94;5034809;28;20215;-77
2023/11/21 02:19:29;;;;;;;1.98;1.80;;;;;;;5.19;100.00;100293.16;5037923;28;20041;-75
2023/11/21 02:21:59;;;;;;;2.05;1.95;;;;;;;5.49;100.00;100334.50;5046948;28;20059;-75
2023/11/21 02:24:25;;;;;;;1.75;1.65;;;;;;;4.91;100.00;100244.03;5062812;28;20025;-77
2023/11/21 02:26:51;;;;;;;2.28;2.15;;;;;;;4.98;100.00;100287.50;5052048;28;20070;-75
2023/11/21 02:29:27;;;;;;;7.63;3.20;;;;;;;5.42;100.00;100330.03;5052294;28;20048;-75
2023/11/21 02:31:54;;;;;;;2.20;2.08;;;;;;;5.48;100.00;100337.97;5043199;28;20092;-75
2023/11/21 02:34:21;;;;;;;6.20;5.82;;;;;;;4.90;100.00;100235.38;5037207;28;20055;-76
2023/11/21 02:36:49;;;;;;;7.53;7.03;;;;;;;5.04;100.00;100254.72;5044132;28;20067;-76
2023/11/21 02:39:16;;;;;;;2.83;2.72;;;;;;;5.40;100.00;100313.50;5028193;28;20032;-76
2023/11/21 02:41:45;;;;;;;0.68;0.68;;;;;;;5.51;100.00;100342.34;5039758;28;20192;-76
2023/11/21 02:44:10;;;;;;;0.75;0.75;;;;;;;4.61;100.00;100213.97;5040179;28;20071;-76
2023/11/21 02:46:37;;;;;;;6.50;6.13;;;;;;;5.30;100.00;100314.19;5050544;28;20049;-76
2023/11/21 02:49:10;;;;;;;5.55;5.25;;;;;;;4.66;100.00;100217.56;5054483;28;20043;-76
2023/11/21 02:51:37;;;;;;;3.22;2.97;;;;;;;5.18;100.00;100322.63;5035258;28;20052;-76
2023/11/21 02:54:06;;;;;;;3.83;3.63;;;;;;;5.22;100.00;100295.84;5028840;28;20372;-75
2023/11/21 02:56:32;;;;;;;5.65;5.25;;;;;;;5.49;100.00;100344.03;5051680;28;21017;-76
2023/11/21 02:58:59;;;;;;;14.10;13.18;;;;;;;4.85;100.00;100211.00;5059985;28;20095;-75
2023/11/21 03:01:26;;;;;;;0.50;0.50;;;;;;;4.98;100.00;100238.13;5055598;28;20039;-75
2023/11/21 03:03:51;;;;;;;0.50;0.50;;;;;;;5.66;100.00;100345.22;5065021;28;20044;-76
2023/11/21 03:06:21;;;;;;;3.55;3.40;;;;;;;5.48;100.00;100337.97;5066281;28;20032;-76
2023/11/21 03:08:47;;;;;;;0.30;0.30;;;;;;;5.48;100.00;100327.56;5063486;28;20132;-76
2023/11/21 03:11:13;;;;;;;0.50;0.50;;;;;;;5.41;100.00;100317.00;5047412;28;20485;-75
2023/11/21 03:13:42;;;;;;;0.68;0.68;;;;;;;5.00;100.00;100268.50;5050113;28;20033;-75
2023/11/21 03:16:10;;;;;;;0.20;0.20;;;;;;;5.16;100.00;100295.69;5064505;28;20043;-76
2023/11/21 03:18:36;;;;;;;0.63;0.63;;;;;;;5.44;100.00;100330.06;5057370;28;20477;-75
2023/11/21 03:21:02;;;;;;;0.70;0.70;;;;;;;4.99;100.00;100255.50;5050299;28;20029;-75
2023/11/21 03:23:28;;;;;;;1.13;1.00;;;;;;;5.26;100.00;100321.03;5052553;28;20384;-75
2023/11/21 03:25:53;;;;;;;0.50;0.50;;;;;;;5.30;100.00;100350.59;5059387;28;20068;-75
2023/11/21 03:28:19;;;;;;;0.52;0.47;;;;;;;5.43;100.00;100347.41;5048584;28;20045;-76
2023/11/21 03:30:45;;;;;;;15.65;14.80;;;;;;;5.07;100.00;100329.31;5034452;28;20086;-76
2023/11/21 03:33:10;;;;;;;3.13;2.92;;;;;;;5.37;100.00;100367.22;5059310;28;20451;-76
2023/11/21 03:35:36;;;;;;;0.30;0.30;;;;;;;5.03;100.00;100317.09;5045237;28;20025;-77
2023/11/21 03:38:02;;;;;;;2.67;2.58;;;;;;;4.39;100.00;100234.31;5048939;28;20480;-75
2023/11/21 03:40:27;;;;;;;0.85;0.65;;;;;;;5.22;100.00;100350.44;5050423;28;21326;-74
2023/11/21 03:42:52;;;;;;;0.30;0.30;;;;;;;4.91;100.00;100328.09;5060915;28;20491;-76
2023/11/21 03:45:26;;;;;;;;;;;;;;;5.28;100.00;100354.88;5044339;28;20048;-76
2023/11/21 03:47:57;;;;;;;0.93;0.93;;;;;;;4.50;100.00;100242.34;5064351;28;19978;-75
2023/11/21 03:50:23;;;;;;;3.67;3.33;;;;;;;5.13;100.00;100342.47;5055657;28;20052;-76
2023/11/21 03:52:48;;;;;;;2.50;2.40;;;;;;;4.22;100.00;100233.94;5061274;28;20039;-76
2023/11/21 03:55:14;;;;;;;0.57;0.57;;;;;;;4.86;100.00;100329.72;5038659;28;20041;-75
2023/11/21 03:57:40;;;;;;;1.15;1.15;;;;;;;4.96;100.00;100333.41;5042490;28;20055;-75
2023/11/21 04:00:08;;;;;;;7.15;6.82;;;;;;;5.04;100.00;100343.13;5061963;28;20353;-77
2023/11/21 04:02:34;;;;;;;0.30;0.30;;;;;;;4.09;100.00;100172.16;5063749;28;20035;-75
2023/11/21 04:05:01;;;;;;;0.40;0.40;;;;;;;4.58;100.00;100264.16;5063205;28;20039;-76
2023/11/21 04:07:26;;;;;;;1.38;1.38;;;;;;;5.02;100.00;100333.56;5061781;28;20119;-77
2023/11/21 04:09:53;;;;;;;4.43;4.22;;;;;;;5.30;100.00;100381.81;5060728;28;20044;-76
2023/11/21 04:12:19;;;;;;;0.38;0.38;;;;;;;5.38;100.00;100382.84;5048900;28;20345;-77
2023/11/21 04:14:45;;;;;;;0.40;0.40;;;;;;;4.71;100.00;100248.84;5048036;28;20480;-75
2023/11/21 04:17:10;;;;;;;1.00;0.95;;;;;;;5.24;100.00;100335.75;5028185;28;20469;-75
2023/11/21 04:19:36;;;;;;;2.17;2.08;;;;;;;5.43;100.00;100375.13;5063314;28;20032;-77
2023/11/21 04:22:05;;;;;;;1.60;1.50;;;;;;;5.24;100.00;100369.56;5053398;28;20080;-76
2023/11/21 04:24:31;;;;;;;4.00;3.72;;;;;;;4.60;100.00;100261.59;5032547;28;20036;-75
2023/11/21 04:26:56;;;;;;;2.67;2.50;;;;;;;4.64;100.00;100276.41;5055395;28;20177;-76
2023/11/21 04:29:22;;;;;;;1.90;1.80;;;;;;;4.98;100.00;100317.00;5059319;28;20064;-76
2023/11/21 04:31:49;;;;;;;1.55;1.45;;;;;;;4.48;100.00;100244.03;5063328;28;20388;-76
2023/11/21 04:34:14;;;;;;;19.98;18.95;;;;;;;4.61;100.00;100250.34;5059660;28;20060;-76
2023/11/21 04:36:40;;;;;;;0.40;0.40;;;;;;;5.23;100.00;100349.59;5062346;28;20052;-76
2023/11/21 04:39:06;;;;;;;3.13;2.92;;;;;;;4.87;100.00;100282.13;5065680;28;20142;-75
2023/11/21 04:41:32;;;;;;;0.20;0.20;;;;;;;4.12;100.00;100158.38;5060727;28;20025;-75
2023/11/21 04:43:58;;;;;;;11.65;10.52;;;;;;;5.04;100.00;100335.34;5061720;28;20418;-76
2023/11/21 04:46:32;;;;;;;0.40;0.40;;;;;;;4.55;100.00;100240.72;5062803;28;20044;-76
2023/11/21 04:48:58;;;;;;;0.35;0.35;;;;;;;5.22;100.00;100359.97;5063056;28;20394;-76
2023/11/21 04:51:24;;;;;;;0.57;0.57;;;;;;;4.37;100.00;100240.31;5062621;28;20021;-76
2023/11/21 04:53:49;;;;;;;0.40;0.40;;;;;;;5.02;100.00;100362.16;5063637;28;20460;-77
2023/11/21 04:56:16;;;;;;;0.50;0.40;;;;;;;4.37;100.00;100259.34;5061222;28;20448;-76
2023/11/21 04:58:41;;;;;;;11.07;10.43;;;;;;;5.00;100.00;100374.25;5033834;28;20061;-74
2023/11/21 05:01:09;;;;;;;0.30;0.30;;;;;;;4.63;100.00;100308.44;5047181;28;20090;-76
2023/11/21 05:03:35;;;;;;;0.30;0.30;;;;;;;4.64;100.00;100292.88;5032176;28;20042;-77
2023/11/21 05:06:01;;;;;;;0.40;0.40;;;;;;;4.68;100.00;100353.59;5042900;28;20348;-75
2023/11/21 05:08:27;;;;;;;7.00;6.43;;;;;;;4.56;100.00;100296.16;5061808;28;20068;-76
2023/11/21 05:10:54;;;;;;;0.30;0.30;;;;;;;4.77;100.00;100339.94;5053354;28;20465;-77
2023/11/21 05:13:27;;;;;;;0.20;0.20;;;;;;;4.84;100.00;100362.63;5029630;28;20448;-76
2023/11/21 05:15:59;;;;;;;3.70;3.40;;;;;;;4.86;100.00;100369.59;5027714;28;20060;-76
2023/11/21 05:18:29;;;;;;;0.50;0.50;;;;;;;4.33;100.00;100270.53;5040639;28;20045;-76
2023/11/21 05:20:55;;;;;;;2.90;2.80;;;;;;;4.86;100.00;100394.72;5056833;28;20039;-75
2023/11/21 05:23:21;;;;;;;3.90;3.70;;;;;;;4.99;100.00;100404.56;5044206;28;20032;-76
2023/11/21 05:25:47;;;;;;;1.15;1.05;;;;;;;4.90;100.00;100380.97;5054750;28;20043;-76
2023/11/21 05:28:13;;;;;;;0.52;0.52;;;;;;;5.08;100.00;100393.50;5042600;28;20091;-76
2023/11/21 05:30:46;;;;;;;1.88;1.05;;;;;;;5.20;100.00;100398.97;5060531;28;20043;-75
2023/11/21 05:33:12;;;;;;;;;;;;;;;5.18;100.00;100400.66;5043482;28;20033;-76
2023/11/21 05:35:37;;;;;;;0.60;0.50;;;;;;;4.97;100.00;100384.59;5052223;28;19909;-75
2023/11/21 05:41:31;;;;;;;1.63;1.55;;;;;;;4.91;100.00;100379.22;5052540;28;20095;-75
2023/11/21 05:43:57;;;;;;;0.30;0.30;;;;;;;5.10;100.00;100406.53;5034801;28;20357;-76
2023/11/21 05:46:23;;;;;;;0.63;0.63;;;;;;;4.97;100.00;100369.84;5051933;28;20056;-77
2023/11/21 05:53:02;;;;;;;0.65;0.65;;;;;;;5.23;100.00;100398.16;5072622;28;20499;-75
2023/11/21 05:55:37;;;;;;;3.22;1.38;;;;;;;5.18;100.00;100389.38;5072512;28;20047;-76
2023/11/21 06:02:02;;;;;;;0.55;0.55;;;;;;;5.34;100.00;100414.88;5063316;28;20085;-77
2023/11/21 06:04:28;;;;;;;0.30;0.30;;;;;;;4.44;100.00;100261.25;5027189;28;20049;-76
2023/11/21 06:06:53;;;;;;;2.72;2.60;;;;;;;5.13;100.00;100398.78;5046413;28;20488;-76
2023/11/21 06:09:19;;;;;;;3.70;0.70;;;;;;;5.46;100.00;100420.31;5039850;28;20020;-76
2023/11/21 06:12:42;;;;;;;4.85;4.63;;;;;;;5.37;100.00;100424.47;5035203;28;20029;-76
2023/11/21 06:21:50;;;;;;;0.30;0.30;;;;;;;4.95;100.00;100329.94;5071623;28;20071;-76
2023/11/21 06:24:16;;;;;;;3.33;3.08;;;;;;;5.18;100.00;100329.56;5071161;28;20380;-75
2023/11/21 06:26:44;;;;;;;1.08;1.08;;;;;;;5.68;100.00;100387.78;5035085;28;20025;-76
2023/11/21 06:29:10;;;;;;;0.40;0.40;;;;;;;5.21;100.00;100299.25;5050671;28;20060;-76
2023/11/21 06:35:00;;;;;;;0.30;0.30;;;;;;;6.14;100.00;100406.03;5049573;28;20051;-76
2023/11/21 06:37:27;;;;;;;10.73;10.15;;;;;;;5.32;100.00;100267.41;5043447;28;20473;-76
2023/11/21 06:39:53;;;;;;;0.40;0.40;;;;;;;5.57;100.00;100298.22;5057293;28;20044;-76
2023/11/21 06:42:19;;;;;;;0.52;0.52;;;;;;;5.64;100.00;100302.69;5055738;28;20554;-76
2023/11/21 06:44:45;;;;;;;0.50;0.50;;;;;;;5.93;100.00;100354.41;5060741;28;20468;-77
2023/11/21 06:47:20;;;;;;;0.65;0.65;;;;;;;6.23;100.00;100393.16;5056412;28;20400;-77
2023/11/21 06:49:47;;;;;;;0.30;0.30;;;;;;;5.98;100.00;100341.50;5058066;28;20046;-74
2023/11/21 06:52:13;;;;;;;0.95;0.93;;;;;;;6.21;100.00;100374.03;5035742;28;20464;-74
2023/11/21 06:54:39;;;;;;;0.40;0.40;;;;;;;6.36;100.00;100370.78;5050490;28;20046;-74
2023/11/21 06:57:04;;;;;;;0.35;0.35;;;;;;;6.51;100.00;100396.25;5046945;28;20086;-73
2023/11/21 06:59:29;;;;;;;1.73;1.63;;;;;;;6.38;100.00;100353.44;5053479;28;20484;-74
2023/11/21 07:01:55;;;;;;;0.32;0.32;;;;;;;6.14;100.00;100322.66;5028150;28;20152;-73
2023/11/21 07:04:20;;;;;;;4.63;3.88;;;;;;;6.47;100.00;100355.34;5035956;28;20068;-72
2023/11/21 07:06:48;;;;;;;0.80;0.80;;;;;;;5.93;100.00;100279.75;5048633;28;20041;-75
2023/11/21 07:09:13;;;;;;;1.92;1.75;;;;;;;6.04;100.00;100264.34;5055813;28;20029;-73
2023/11/21 07:11:39;;;;;;;0.52;0.52;;;;;;;6.86;100.00;100381.13;5062875;28;20033;-73
2023/11/21 07:14:08;;;;;;;0.20;0.20;;;;;;;6.98;100.00;100390.88;5060820;28;20045;-74
2023/11/21 07:16:37;;;;;;;0.20;0.20;;;;;;;7.09;100.00;100393.59;5059518;28;20061;-74
2023/11/21 07:19:07;;;;;;;1.17;0.93;;;;;;;6.42;100.00;100281.41;5044878;28;20437;-75
2023/11/21 07:21:33;;;;;;;0.47;0.47;;;;;;;6.87;100.00;100380.28;5038377;28;20033;-73
2023/11/21 07:24:00;;;;;;;1.95;1.17;;;;;;;7.01;100.00;100372.63;5037695;28;20052;-74
2023/11/21 07:26:27;;;;;;;0.30;0.30;;;;;;;6.39;100.00;100289.16;5040117;28;20056;-73
2023/11/21 07:28:53;;;;;;;4.05;3.78;;;;;;;6.74;100.00;100355.75;5040154;28;20120;-75
2023/11/21 07:31:19;;;;;;;0.60;0.60;;;;;;;6.39;100.00;100292.69;5044733;28;20048;-73
2023/11/21 07:33:48;;;;;;;0.30;0.30;;;;;;;7.08;100.00;100413.63;5062249;28;20037;-74
2023/11/21 07:36:18;;;;;;;1.08;1.02;;;;;;;6.38;100.00;100298.72;5050313;28;20029;-74
2023/11/21 07:38:44;;;;;;;1.02;1.00;;;;;;;6.17;100.00;100298.41;5017719;28;20025;-75
2023/11/21 07:41:10;;;;;;;0.30;0.30;;;;;;;6.81;100.00;100371.47;5049335;28;20091;-73
2023/11/21 07:43:37;;;;;;;0.50;0.50;;;;;;;7.12;100.00;100402.38;5055355;28;20074;-75
2023/11/21 07:46:03;;;;;;;0.45;0.45;;;;;;;7.03;100.00;100399.63;5063074;28;20036;-74
2023/11/21 07:48:32;;;;;;;0.38;0.38;;;;;;;6.97;100.00;100363.00;5061033;28;20036;-74
2023/11/21 07:50:58;;;;;;;0.28;0.28;;;;;;;6.86;100.00;100307.22;5033780;28;20467;-75
2023/11/21 07:53:30;;;;;;;7.40;7.10;;;;;;;7.38;100.00;100396.63;5027727;28;20045;-74
2023/11/21 07:55:57;;;;;;;3.08;2.85;;;;;;;7.33;100.00;100386.13;5044828;28;20036;-75
2023/11/21 07:58:23;;;;;;;12.30;11.55;;;;;;;7.57;100.00;100408.16;5062750;28;20043;-73
2023/11/21 08:00:49;;;;;;;11.38;6.70;;;;;;;7.57;100.00;100395.97;5028512;28;20025;-74
2023/11/21 08:03:15;;;;;;;0.30;0.30;;;;;;;7.47;100.00;100383.69;5052807;28;20032;-73
2023/11/21 08:05:41;;;;;;;2.35;2.25;;;;;;;7.29;100.00;100339.09;5048297;28;20029;-75
2023/11/21 08:08:07;;;;;;;1.73;1.63;;;;;;;7.70;100.00;100401.34;5048624;28;20493;-73
2023/11/21 08:10:33;;;;;;;1.30;1.08;;;;;;;7.54;100.00;100361.13;5056709;28;20045;-75
2023/11/21 08:12:59;;;;;;;3.50;2.88;;;;;;;7.82;100.00;100391.06;5063511;28;20036;-74
2023/11/21 08:15:25;;;;;;;2.67;2.58;;;;;;;7.95;100.00;100395.53;5057727;28;20029;-73
2023/11/21 08:17:50;;;;;;;0.30;0.30;;;;;;;7.65;100.00;100322.94;5027131;28;20041;-74
2023/11/21 08:20:17;;;;;;;0.63;0.63;;;;;;;7.37;100.00;100264.34;5064168;28;20033;-73
2023/11/21 08:22:44;;;;;;;0.30;0.30;;;;;;;8.03;100.00;100387.78;5048021;28;20045;-73
2023/11/21 08:25:10;;;;;;;0.32;0.30;;;;;;;8.17;100.00;100387.88;5059121;28;20492;-75
2023/11/21 08:27:35;;;;;;;0.30;0.30;;;;;;;8.13;100.00;100386.13;5047557;28;20043;-75
2023/11/21 08:30:02;;;;;;;5.70;5.40;;;;;;;8.23;100.00;100380.97;5047941;28;20078;-73
2023/11/21 08:32:32;;;;;;;0.63;0.63;;;;;;;7.88;100.00;100301.41;5047977;28;20073;-72
2023/11/21 08:34:57;;;;;;;0.70;0.70;;;;;;;7.96;100.00;100290.16;5031607;28;20033;-74
2023/11/21 08:37:24;;;;;;;4.68;4.38;;;;;;;8.25;100.00;100308.69;5049778;28;20486;-73
2023/11/21 08:39:49;;;;;;;2.22;2.05;;;;;;;7.96;100.00;100250.09;5052073;28;20037;-73
2023/11/21 08:42:15;;;;;;;2.10;2.00;;;;;;;8.79;100.00;100352.69;5062780;28;20032;-74
2023/11/21 08:44:41;;;;;;;0.30;0.30;;;;;;;7.68;100.00;100183.69;5054750;28;20038;-74
2023/11/21 08:47:07;;;;;;;16.77;12.10;;;;;;;8.78;100.00;100358.75;5042398;28;20552;-74
2023/11/21 08:49:32;;;;;;;0.65;0.65;;;;;;;8.90;100.00;100347.50;5046930;28;20163;-73
2023/11/21 08:51:59;;;;;;;0.40;0.40;;;;;;;9.00;100.00;100337.09;5054726;28;20032;-73
2023/11/21 08:54:26;;;;;;;3.40;2.45;;;;;;;8.66;100.00;100231.38;5044517;28;20032;-73
2023/11/21 08:56:54;;;;;;;0.65;0.65;;;;;;;9.22;100.00;100298.78;5060768;28;20034;-74
2023/11/21 08:59:20;;;;;;;1.27;1.27;;;;;;;8.99;100.00;100237.63;5057503;28;20040;-76
2023/11/21 09:01:47;;;;;;;1.20;0.43;;;;;;;9.21;100.00;100315.38;5046022;28;20078;-74
2023/11/21 09:04:12;;;;;;;0.20;0.20;;;;;;;9.62;100.00;100311.13;5038584;28;20052;-73
2023/11/21 09:06:39;;;;;;;0.20;0.20;;;;;;;9.82;100.00;100319.03;5058994;28;20120;-75
2023/11/21 09:09:06;;;;;;;0.30;0.30;;;;;;;9.92;100.00;100299.81;5027678;28;20159;-74
2023/11/21 09:11:35;;;;;;;0.43;0.43;;;;;;;9.93;100.00;100289.34;5049737;28;20483;-75
2023/11/21 09:14:01;;;;;;;0.20;0.20;;;;;;;9.58;100.00;100226.44;5053264;28;20032;-75
2023/11/21 09:16:27;;;;;;;0.30;0.30;;;;;;;9.92;100.00;100250.03;5038313;28;20083;-73
2023/11/21 09:18:59;;;;;;;0.38;0.30;;;;;;;9.71;100.00;100212.47;5045870;28;20045;-73
2023/11/21 09:21:36;;;;;;;2.25;1.95;;;;;;;9.78;100.00;100220.34;5032467;28;20060;-73
2023/11/21 09:24:02;;;;;;;11.07;3.40;;;;;;;9.80;100.00;100201.13;5053909;28;20388;-74
2023/11/21 09:26:31;;;;;;;0.20;0.20;;;;;;;10.40;100.00;100295.50;5053053;28;20407;-74
2023/11/21 09:28:56;;;;;;;0.20;0.20;;;;;;;10.12;100.00;100229.06;5046257;28;20246;-73
2023/11/21 09:31:23;;;;;;;0.80;0.60;;;;;;;10.64;100.00;100280.59;5046209;28;20127;-75
2023/11/21 09:33:49;;;;;;;2.15;2.05;;;;;;;10.09;100.00;100177.50;5062159;28;20115;-73
2023/11/21 09:36:15;;;;;;;2.50;2.08;;;;;;;10.45;100.00;100245.66;5044585;28;20054;-73
2023/11/21 09:38:44;;;;;;;5.03;3.58;;;;;;;10.34;100.00;100229.91;5059358;28;20040;-73
2023/11/21 09:41:20;;;;;;;0.30;0.22;;;;;;;10.69;100.00;100248.19;5059810;28;20127;-75
2023/11/21 09:43:47;;;;;;;0.35;0.35;;;;;;;10.94;100.00;100259.47;5040429;28;20033;-74
2023/11/21 09:46:19;;;;;;;1.20;1.10;;;;;;;10.55;100.00;100172.16;5028635;28;20033;-73
2023/11/21 09:48:48;;;;;;;3.03;2.83;;;;;;;10.71;100.00;100177.34;5034050;28;20492;-73
2023/11/21 09:51:15;;;;;;;3.72;2.50;;;;;;;11.28;100.00;100256.69;5055870;28;20020;-74
2023/11/21 09:53:46;;;;;;;0.20;0.20;;;;;;;11.32;100.00;100257.56;5029078;28;20110;-74
2023/11/21 09:56:11;;;;;;;0.38;0.38;;;;;;;11.30;100.00;100244.41;5044883;28;20037;-74
2023/11/21 09:58:37;;;;;;;0.20;0.20;;;;;;;10.98;100.00;100161.47;5045319;28;20083;-74
2023/11/21 10:01:07;;;;;;;3.25;2.97;;;;;;;10.95;100.00;100132.56;5051280;28;20069;-74
2023/11/21 10:03:36;;;;;;;4.43;2.33;;;;;;;11.56;100.00;100231.13;5040023;28;20024;-74
2023/11/21 10:06:05;;;;;;;1.77;1.65;;;;;;;11.65;100.00;100239.81;5061783;28;20059;-73
2023/11/21 10:08:32;;;;;;;4.97;3.25;;;;;;;11.71;100.00;100230.16;5038827;28;20032;-73
2023/11/21 10:10:59;;;;;;;4.82;4.07;;;;;;;11.10;100.00;100134.25;5053377;28;20048;-74
2023/11/21 10:13:41;;;;;;;2.65;2.45;;;;;;;11.95;100.00;100228.22;5046703;28;20029;-73
2023/11/21 10:16:11;;;;;;;0.30;0.30;;;;;;;11.60;100.00;100132.97;5048931;28;20030;-73
2023/11/21 10:18:40;;;;;;;9.23;3.67;;;;;;;12.16;100.00;100188.56;5056602;28;20381;-73
2023/11/21 10:21:06;;;;;;;3.35;2.35;;;;;;;12.33;100.00;100198.91;5028718;28;20032;-72
2023/11/21 10:23:32;;;;;;;1.70;1.35;;;;;;;12.49;100.00;100210.16;5042004;28;20440;-72
2023/11/21 10:25:59;;;;;;;1.35;1.25;;;;;;;12.37;100.00;100221.69;5041362;28;20465;-73
2023/11/21 10:28:25;;;;;;;1.00;0.95;;;;;;;12.10;100.00;100180.75;5050440;28;20041;-74
2023/11/21 10:30:52;;;;;;;2.47;1.80;;;;;;;12.14;100.00;100150.91;5038695;28;20036;-73
2023/11/21 10:33:27;;;;;;;4.07;3.67;;;;;;;12.54;100.00;100199.56;5058658;28;20077;-72
2023/11/21 10:35:54;;;;;;;24.25;3.45;;;;;;;12.25;100.00;100138.50;5064105;28;20480;-73
2023/11/21 10:38:23;;;;;;;2.83;1.67;;;;;;;12.75;100.00;100199.31;5042055;28;20053;-74
2023/11/21 10:40:49;;;;;;;2.63;1.80;;;;;;;12.97;100.00;100202.56;5047197;28;20037;-75
2023/11/21 10:43:15;;;;;;;1.15;1.05;;;;;;;13.11;100.00;100202.38;5040845;28;20037;-74
2023/11/21 10:45:42;;;;;;;8.10;2.88;;;;;;;12.68;100.00;100114.28;5057536;28;20106;-73
2023/11/21 10:48:17;;;;;;;1.90;1.13;;;;;;;12.87;100.00;100148.25;5054181;28;20127;-73
2023/11/21 10:50:47;;;;;;;1.38;0.80;;;;;;;13.09;100.00;100194.50;5045954;28;20021;-73
2023/11/21 10:53:12;;;;;;;5.93;4.15;;;;;;;13.17;100.00;100197.00;5032056;28;20044;-73
2023/11/21 10:55:39;;;;;;;2.75;1.42;;;;;;;12.91;100.00;100154.38;5051633;28;20086;-73
2023/11/21 10:58:05;;;;;;;2.90;2.67;;;;;;;13.22;100.00;100183.78;5033557;28;20040;-74
2023/11/21 11:00:32;;;;;;;3.53;2.67;;;;;;;12.82;100.00;100118.50;5027864;28;20460;-73
2023/11/21 11:02:59;;;;;;;1.50;1.23;;;;;;;13.10;100.00;100190.94;5053756;28;20024;-74
2023/11/21 11:05:25;;;;;;;1.65;1.55;;;;;;;12.56;100.00;100084.63;5045887;28;20076;-74
2023/11/21 11:08:05;;;;;;;4.10;2.25;;;;;;;12.63;100.00;100076.63;5034513;28;20052;-73
2023/11/21 11:10:34;;;;;;;1.20;1.10;;;;;;;12.92;100.00;100158.72;5043256;28;20040;-72
2023/11/21 11:13:01;;;;;;;2.60;1.95;;;;;;;13.24;100.00;100156.50;5040676;28;20040;-73
2023/11/21 11:15:27;;;;;;;1.25;1.15;;;;;;;12.65;100.00;100069.56;5035710;28;20044;-74
2023/11/21 11:17:57;;;;;;;2.13;1.27;;;;;;;13.13;100.00;100134.72;5061766;28;20372;-73
2023/11/21 11:20:25;;;;;;;1.95;1.20;;;;;;;13.13;100.00;100152.28;5039833;28;20040;-73
2023/11/21 11:23:27;;;;;;;0.30;0.30;;;;;;;13.14;100.00;100160.19;5047373;28;20491;-73
2023/11/21 11:25:53;;;;;;;4.25;2.67;;;;;;;13.16;100.00;100162.78;5049177;28;20052;-75
2023/11/21 11:28:34;;;;;;;1.92;1.40;;;;;;;13.26;100.00;100153.84;5045043;28;20493;-74
2023/11/21 11:31:26;;;;;;;2.10;1.85;;;;;;;13.05;100.00;100137.47;5040804;28;20114;-74
2023/11/21 11:33:55;;;;;;;1.50;1.23;;;;;;;13.20;100.00;100160.06;5031950;28;20386;-73
2023/11/21 11:36:39;;;;;;;2.10;1.23;;;;;;;13.15;100.00;100154.00;5045846;28;20052;-73
2023/11/21 11:39:29;;;;;;;1.23;1.13;;;;;;;13.23;100.00;100160.03;5057379;28;20175;-73
2023/11/21 11:41:58;;;;;;;2.30;1.77;;;;;;;13.01;100.00;100151.56;5062245;28;20435;-72
2023/11/21 11:44:51;;;;;;;2.75;1.58;;;;;;;13.15;100.00;100153.13;5067863;28;20044;-73
2023/11/21 11:47:21;;;;;;;3.83;3.50;;;;;;;13.23;100.00;100159.19;5061621;28;20050;-73